Bookmark and Share
Track history (hours):
 

Cap Theodora

Last reported at 2014-Apr-13 02:04 UTC. Time now 2014-Apr-19 09:29 UTC.
Position N 38°16' W 030°19'.

Length 274 m; draft 15.3 m.

Type: Tanker. MMSI: 240840000.

NotesDate/timePositionNaut miles runAvg speedWind from/ knotsBaromVisibWave heightAir tempDewpointWater temp
2014-Apr-13 02:04N 38°16' W 030°19'4 8.8
2014-Apr-13 01:33N 38°16' W 030°14'7 7.0
2014-Apr-13 00:33N 38°15' W 030°05'6 6.0
2014-Apr-12 23:33N 38°14' W 029°57'6 5.8
2014-Apr-12 22:33N 38°13' W 029°50'6 6.2
2014-Apr-12 21:33N 38°11' W 029°42'6 6.4
2014-Apr-12 20:33N 38°10' W 029°35'6 6.3
2014-Apr-12 19:33N 38°08' W 029°27'6 6.2
2014-Apr-12 18:33N 38°07' W 029°19'6 6.2
2014-Apr-12 17:33N 38°06' W 029°11'6 6.3
2014-Apr-12 16:33N 38°05' W 029°03'6 6.3
2014-Apr-12 15:33N 38°03' W 028°56'7 6.8
2014-Apr-12 14:33N 38°02' W 028°47'7 6.7
2014-Apr-12 13:33N 38°01' W 028°39'7 6.5
2014-Apr-12 12:33N 37°59' W 028°31'7 6.8
2014-Apr-12 11:33N 37°58' W 028°22'7 6.9
2014-Apr-12 10:33N 37°56' W 028°14'9 8.9
2014-Apr-12 09:33N 37°54' W 028°03'1111.1
2014-Apr-12 08:33N 37°52' W 027°49'10 9.6
2014-Apr-12 07:33N 37°50' W 027°37'10 9.6
2014-Apr-12 06:33N 37°49' W 027°25'9 9.3
2014-Apr-12 05:33N 37°47' W 027°14'9 9.3
2014-Apr-12 04:34N 37°45' W 027°02'9 9.1
2014-Apr-12 03:33N 37°43' W 026°51'9 9.3
2014-Apr-12 02:33N 37°41' W 026°39'9 9.3
2014-Apr-12 01:33N 37°39' W 026°28'8 7.8
2014-Apr-12 00:33N 37°37' W 026°18'7 7.1
2014-Apr-11 23:34N 37°36' W 026°09'7 7.5
2014-Apr-11 22:33N 37°35' W 026°00'7 7.4
2014-Apr-11 21:34N 37°33' W 025°51'7 7.5
2014-Apr-11 20:33N 37°32' W 025°42'8 7.6
2014-Apr-11 19:33N 37°31' W 025°32'8 7.8
2014-Apr-11 18:33N 37°30' W 025°22'8 8.2
2014-Apr-11 17:33N 37°29' W 025°12'8 8.2
2014-Apr-11 16:33N 37°28' W 025°02'8 7.6
2014-Apr-11 15:33N 37°27' W 024°52'7 7.2
2014-Apr-11 14:33N 37°26' W 024°43'7 7.4
2014-Apr-11 13:33N 37°25' W 024°34'7 7.4
2014-Apr-11 12:34N 37°25' W 024°25'9 8.9
2014-Apr-11 11:33N 37°24' W 024°14'9 9.3
2014-Apr-11 10:33N 37°23' W 024°02'1211.7
2014-Apr-11 09:34N 37°21' W 023°48'  
2014-Apr-08 02:22N 36°20' W 012°40'2513.0
2014-Apr-08 00:26N 36°17' W 012°09'4012.8
2014-Apr-07 21:21N 36°13' W 011°20'33 8.8
2014-Apr-07 17:33N 36°09' W 010°39'8 8.1
2014-Apr-07 16:33N 36°08' W 010°29'52 8.1
2014-Apr-07 10:05N 36°02' W 009°25'5 6.2
2014-Apr-07 09:13N 36°01' W 009°19'2312.9
2014-Apr-07 07:27N 35°59' W 008°51'58 6.5
2014-Apr-06 22:32N 35°57' W 007°39'72 6.9
2014-Apr-06 12:03N 35°57' W 006°10'4 6.5
2014-Apr-06 11:27N 35°58' W 006°05'7 6.2
2014-Apr-06 10:19N 35°57' W 005°56'6 6.0
2014-Apr-06 09:22N 35°57' W 005°49'5 5.9
2014-Apr-06 08:33N 35°57' W 005°43'6 6.0
2014-Apr-06 07:33N 35°58' W 005°36'10 9.6
2014-Apr-06 06:33N 36°01' W 005°24'8 8.2
2014-Apr-06 05:33N 36°03' W 005°15'6 5.9
2014-Apr-06 04:33N 36°04' W 005°07'  

Dump ship's entire track history

sailing weather and tide predictions

Cap Theodora — SVAM5 — position and weather